Time;durP1;ratioP1;P1;durP2;ratioP2;P2;SDS_P1;SDS_P2;PMS_P1;PMS_P2;Temp;Humidity;BMP_temperature;BMP_pressure;BME280_temperature;BME280_humidity;BME280_pressure;Samples;Min_cycle;Max_cycle;Signal;HPM_P1;HPM_P2
2024/04/12 00:00:32;;;;;;;5.43;3.03;;;;;;;8.46;100.00;97779.97;5417897;26;20277;-77
2024/04/12 00:03:01;;;;;;;5.03;3.13;;;;;;;8.45;100.00;97785.34;5416521;26;20235;-72
2024/04/12 00:05:27;;;;;;;6.03;2.93;;;;;;;8.31;100.00;97783.88;5409502;26;20231;-75
2024/04/12 00:08:04;;;;;;;4.00;2.87;;;;;;;8.50;100.00;97784.00;5411804;26;20234;-79
2024/04/12 00:10:31;;;;;;;7.03;3.00;;;;;;;8.29;100.00;97782.31;5415730;26;20230;-75
2024/04/12 00:13:01;;;;;;;3.83;2.80;;;;;;;8.29;100.00;97777.91;5413808;26;20239;-73
2024/04/12 00:15:27;;;;;;;6.77;3.50;;;;;;;8.26;100.00;97769.44;5406107;26;20690;-78
2024/04/12 00:17:56;;;;;;;5.50;3.13;;;;;;;8.27;100.00;97776.34;5416199;26;20330;-76
2024/04/12 00:20:22;;;;;;;7.83;3.60;;;;;;;8.31;100.00;97769.88;5412037;26;20223;-73
2024/04/12 00:22:55;;;;;;;9.30;2.90;;;;;;;8.36;100.00;97770.34;5414165;26;20765;-77
2024/04/12 00:25:23;;;;;;;5.40;3.10;;;;;;;8.41;100.00;97763.75;5411573;26;20339;-77
2024/04/12 00:27:54;;;;;;;4.80;2.90;;;;;;;8.27;100.00;97763.22;5409870;26;20269;-78
2024/04/12 00:30:37;;;;;;;6.43;3.60;;;;;;;8.24;100.00;97761.69;5412675;26;20235;-73
2024/04/12 00:33:09;;;;;;;7.47;3.57;;;;;;;8.33;100.00;97758.28;5418558;26;20268;-75
2024/04/12 00:35:38;;;;;;;5.07;3.27;;;;;;;8.20;100.00;97762.91;5412297;26;20235;-80
2024/04/12 00:38:09;;;;;;;5.40;3.07;;;;;;;8.22;100.00;97768.00;5414169;26;20347;-79
2024/04/12 00:40:44;;;;;;;4.93;3.40;;;;;;;8.37;100.00;97766.75;5412669;26;20718;-77
2024/04/12 00:43:11;;;;;;;4.87;3.17;;;;;;;8.05;100.00;97779.03;5410160;26;20227;-74
2024/04/12 00:45:48;;;;;;;4.33;3.03;;;;;;;8.12;100.00;97775.78;5415394;26;20316;-72
2024/04/12 00:48:15;;;;;;;4.10;2.70;;;;;;;7.91;100.00;97779.31;5417594;26;20238;-74
2024/04/12 00:50:46;;;;;;;5.17;3.00;;;;;;;7.95;100.00;97780.72;5413251;26;20284;-77
2024/04/12 00:53:13;;;;;;;4.63;3.00;;;;;;;7.93;100.00;97786.09;5413732;26;20226;-74
2024/04/12 00:55:47;;;;;;;5.37;2.83;;;;;;;7.92;100.00;97786.25;5408286;26;20230;-74
2024/04/12 00:58:14;;;;;;;5.07;3.57;;;;;;;7.72;100.00;97781.75;5421872;26;20326;-72
2024/04/12 01:00:46;;;;;;;6.97;3.77;;;;;;;7.89;100.00;97773.34;5412154;26;20311;-77
2024/04/12 01:03:15;;;;;;;5.63;3.83;;;;;;;7.94;100.00;97766.78;5406894;26;20262;-76
2024/04/12 01:05:43;;;;;;;6.10;2.60;;;;;;;7.86;100.00;97772.78;5411827;26;20229;-74
2024/04/12 01:08:08;;;;;;;5.90;3.20;;;;;;;7.85;100.00;97777.16;5422197;26;20304;-74
2024/04/12 01:10:37;;;;;;;5.40;3.50;;;;;;;7.74;100.00;97774.59;5416643;26;20666;-76
2024/04/12 01:13:05;;;;;;;5.20;3.57;;;;;;;7.91;100.00;97777.50;5418619;26;20233;-75
2024/04/12 01:15:36;;;;;;;5.10;3.43;;;;;;;7.92;100.00;97773.94;5406417;26;20268;-74
2024/04/12 01:18:04;;;;;;;7.80;3.40;;;;;;;7.88;100.00;97776.94;5421216;26;20230;-75
2024/04/12 01:20:34;;;;;;;5.87;3.53;;;;;;;7.80;100.00;97771.47;5422370;26;20569;-72
2024/04/12 01:23:00;;;;;;;7.57;3.60;;;;;;;7.66;100.00;97774.38;5409363;26;20273;-78
2024/04/12 01:25:32;;;;;;;6.37;3.00;;;;;;;7.76;100.00;97777.91;5414657;26;20222;-79
2024/04/12 01:27:57;;;;;;;5.63;3.10;;;;;;;7.73;100.00;97772.91;5409782;26;20281;-73
2024/04/12 01:30:26;;;;;;;5.10;3.43;;;;;;;7.79;100.00;97782.94;5408346;26;20234;-75
2024/04/12 01:32:51;;;;;;;7.03;3.27;;;;;;;7.54;100.00;97772.72;5414204;26;20241;-72
2024/04/12 01:35:21;;;;;;;6.10;3.70;;;;;;;7.55;100.00;97768.31;5414560;26;20261;-75
2024/04/12 01:37:46;;;;;;;4.83;3.00;;;;;;;7.58;100.00;97766.25;5416657;26;20281;-76
2024/04/12 01:40:15;;;;;;;3.13;2.50;;;;;;;7.66;100.00;97771.75;5413988;26;20790;-75
2024/04/12 01:42:44;;;;;;;4.30;2.90;;;;;;;7.74;100.00;97768.50;5412284;26;20724;-73
2024/04/12 01:45:18;;;;;;;5.10;2.90;;;;;;;7.62;100.00;97772.94;5412458;26;20270;-73
2024/04/12 01:47:52;;;;;;;5.03;3.30;;;;;;;7.50;100.00;97776.53;5406563;26;20298;-73
2024/04/12 01:50:23;;;;;;;4.37;3.07;;;;;;;7.58;100.00;97773.31;5405437;26;21186;-78
2024/04/12 01:52:50;;;;;;;5.13;3.20;;;;;;;7.44;100.00;97770.94;5415362;26;20226;-72
2024/04/12 01:55:18;;;;;;;5.73;3.00;;;;;;;7.32;100.00;97775.34;5414407;26;20749;-77
2024/04/12 01:57:46;;;;;;;5.33;3.00;;;;;;;7.41;100.00;97772.00;5414799;26;21244;-72
2024/04/12 02:00:16;;;;;;;5.10;3.00;;;;;;;7.30;100.00;97769.38;5406414;26;20223;-73
2024/04/12 02:02:42;;;;;;;4.67;3.13;;;;;;;7.26;100.00;97769.75;5414101;26;20269;-78
2024/04/12 02:05:10;;;;;;;4.60;2.90;;;;;;;7.24;100.00;97771.66;5411059;26;20283;-73
2024/04/12 02:07:39;;;;;;;4.27;2.83;;;;;;;7.20;100.00;97778.09;5418379;26;20239;-75
2024/04/12 02:10:11;;;;;;;4.20;2.90;;;;;;;7.26;100.00;97776.81;5417859;26;20227;-73
2024/04/12 02:12:40;;;;;;;3.77;2.70;;;;;;;7.25;100.00;97772.50;5406629;26;20229;-79
2024/04/12 02:15:19;;;;;;;3.73;3.00;;;;;;;7.28;100.00;97766.06;5409796;26;20265;-72
2024/04/12 02:17:48;;;;;;;5.83;3.40;;;;;;;7.34;100.00;97776.09;5413870;26;20318;-73
2024/04/12 02:20:19;;;;;;;5.10;3.17;;;;;;;7.26;100.00;97777.63;5407341;26;20644;-74
2024/04/12 02:22:45;;;;;;;3.97;2.90;;;;;;;7.09;100.00;97785.13;5422325;26;20329;-72
2024/04/12 02:25:17;;;;;;;4.73;2.63;;;;;;;7.06;100.00;97783.56;5403376;26;20616;-74
2024/04/12 02:27:42;;;;;;;6.33;3.20;;;;;;;7.08;100.00;97793.97;5409932;26;20227;-75
2024/04/12 02:30:13;;;;;;;7.63;3.20;;;;;;;7.21;100.00;97785.00;5415984;26;20285;-73
2024/04/12 02:32:39;;;;;;;7.37;3.50;;;;;;;7.07;100.00;97787.03;5419122;26;20227;-75
2024/04/12 02:35:07;;;;;;;3.87;2.80;;;;;;;7.10;100.00;97797.28;5417703;26;20638;-73
2024/04/12 02:37:34;;;;;;;5.77;3.10;;;;;;;7.02;100.00;97797.03;5415742;26;20351;-73
2024/04/12 02:40:06;;;;;;;5.23;3.03;;;;;;;6.96;100.00;97794.88;5409996;26;20230;-78
2024/04/12 02:42:33;;;;;;;4.73;3.00;;;;;;;6.97;100.00;97792.13;5419125;26;20227;-75
2024/04/12 02:45:04;;;;;;;4.60;3.30;;;;;;;6.94;100.00;97792.38;5427151;26;20269;-73
2024/04/12 02:47:34;;;;;;;5.30;3.20;;;;;;;7.21;100.00;97784.19;5423344;26;20273;-74
2024/04/12 02:50:09;;;;;;;8.43;3.40;;;;;;;6.99;100.00;97792.06;5417334;26;20277;-73
2024/04/12 02:52:35;;;;;;;3.93;3.07;;;;;;;6.94;100.00;97784.53;5416354;26;20230;-78
2024/04/12 02:55:05;;;;;;;4.53;3.17;;;;;;;6.99;100.00;97786.81;5412331;26;20230;-74
2024/04/12 02:57:35;;;;;;;4.37;3.23;;;;;;;7.10;100.00;97792.88;5424578;26;20304;-72
2024/04/12 03:00:04;;;;;;;4.93;3.03;;;;;;;7.10;100.00;97781.56;5417834;26;20233;-75
2024/04/12 03:02:32;;;;;;;3.77;2.70;;;;;;;7.21;100.00;97785.00;5416899;26;20262;-78
2024/04/12 03:05:01;;;;;;;3.30;2.47;;;;;;;7.05;100.00;97783.69;5415443;26;21166;-75
2024/04/12 03:07:27;;;;;;;4.77;2.97;;;;;;;6.98;100.00;97777.28;5410874;26;20790;-80
2024/04/12 03:09:55;;;;;;;7.63;3.20;;;;;;;6.92;100.00;97777.72;5407390;26;20315;-73
2024/04/12 03:12:21;;;;;;;5.07;3.03;;;;;;;6.94;100.00;97778.47;5411287;26;20695;-76
2024/04/12 03:14:54;;;;;;;4.40;2.97;;;;;;;6.93;100.00;97774.16;5413923;26;20724;-73
2024/04/12 03:17:21;;;;;;;4.40;2.70;;;;;;;6.94;100.00;97767.97;5409704;26;20222;-80
2024/04/12 03:19:54;;;;;;;3.47;2.60;;;;;;;7.00;100.00;97767.47;5420622;26;20263;-73
2024/04/12 03:22:21;;;;;;;4.60;3.10;;;;;;;6.90;100.00;97766.56;5417206;26;20364;-73
2024/04/12 03:24:50;;;;;;;3.87;2.87;;;;;;;6.84;100.00;97767.00;5413774;26;20227;-80
2024/04/12 03:27:16;;;;;;;4.17;2.90;;;;;;;6.89;100.00;97762.25;5419904;26;20226;-80
